Amberson, Pennsylvania
Current Conditions -  °F | °C
As of 10:53 AM on Friday 24 Oct 2014 (Local Time) from KHGR Reporting Station
Clear Clear  
Wind Chill: 57°   Ceiling: Unl
Heat Index: 57°   Visibility: 10mi
Dew Point: 41°   Wind: 12mph
Humidity: 55%   Direction: 290°WNW
Pressure: 30"   Gusts: NA
Location:  40.17°N, 77.68°W
Report Text: KHGR 241453Z 29010KT 10SM CLR 14/05 A3000 RMK AO2 SLP169 T01390050 50005
Loading
Personal Weather Stations






























Interactive Weather Map
Tropical Storm Tracking
New forecast layout! Learn more

10-Day Weather Forecast

Advertisements
Track Severe Weather on mobile